createdAt,value
2019-05-01T00:04:51.814Z,10.60
2019-05-01T00:13:09.484Z,10.72
2019-05-01T00:39:14.141Z,14.20
2019-05-01T00:47:31.659Z,13.90
2019-05-01T00:55:56.712Z,11.70
2019-05-01T01:04:57.286Z,13.27
2019-05-01T01:22:13.975Z,13.90
2019-05-01T01:30:31.505Z,13.50
2019-05-01T01:38:49.001Z,19.00
2019-05-01T01:47:06.495Z,18.70
2019-05-01T01:55:24.109Z,17.70
2019-05-01T02:03:44.188Z,17.17
2019-05-01T02:12:01.677Z,20.63
2019-05-01T02:20:20.804Z,18.23
2019-05-01T02:28:50.932Z,20.77
2019-05-01T02:37:08.621Z,23.62
2019-05-01T02:54:25.633Z,26.63
2019-05-01T03:02:43.104Z,25.20
2019-05-01T03:11:00.617Z,28.30
2019-05-01T03:19:25.227Z,27.13
2019-05-01T03:27:42.779Z,29.03
2019-05-01T03:44:47.955Z,30.60
2019-05-01T03:53:05.527Z,29.83
2019-05-01T04:01:36.597Z,32.27
2019-05-01T04:09:54.215Z,32.47
2019-05-01T04:18:11.979Z,34.03
2019-05-01T04:26:29.443Z,33.40
2019-05-01T04:34:53.427Z,35.43
2019-05-01T04:43:10.959Z,34.87
2019-05-01T04:51:28.455Z,34.73
2019-05-01T04:59:46.075Z,37.07
2019-05-01T05:08:03.840Z,34.15
2019-05-01T05:16:40.535Z,35.80
2019-05-01T05:24:58.475Z,35.47
2019-05-01T05:33:18.781Z,35.27
2019-05-01T05:41:37.074Z,35.68
2019-05-01T05:49:54.811Z,37.70
2019-05-01T05:58:22.355Z,37.17
2019-05-01T06:07:06.444Z,39.03
2019-05-01T06:15:55.550Z,39.17
2019-05-01T06:24:18.839Z,41.03
2019-05-01T06:32:39.811Z,39.50
2019-05-01T06:40:58.458Z,42.40
2019-05-01T06:49:33.983Z,44.57
2019-05-01T06:57:52.215Z,43.97
2019-05-01T07:06:30.934Z,41.80
2019-05-01T07:14:52.156Z,49.13
2019-05-01T07:23:12.723Z,51.50
2019-05-01T07:31:30.999Z,49.40
2019-05-01T07:39:50.013Z,48.73
2019-05-01T07:48:08.479Z,50.90
2019-05-01T07:56:28.169Z,47.17
2019-05-01T08:04:45.351Z,44.17
2019-05-01T08:13:02.796Z,46.20
2019-05-01T08:21:41.216Z,42.30
2019-05-01T08:30:06.246Z,44.97
2019-05-01T08:38:23.753Z,46.13
2019-05-01T08:47:00.456Z,42.30
2019-05-01T08:55:17.949Z,42.13
2019-05-01T09:03:35.437Z,42.27
2019-05-01T09:11:54.626Z,41.47
2019-05-01T09:20:12.670Z,35.97
2019-05-01T09:28:35.973Z,38.60
2019-05-01T09:36:53.311Z,32.80
2019-05-01T09:45:10.968Z,37.60
2019-05-01T09:53:44.828Z,36.80
2019-05-01T10:02:03.094Z,34.50
2019-05-01T10:10:24.808Z,34.37
2019-05-01T10:18:41.085Z,33.57
2019-05-01T10:27:01.474Z,33.07
2019-05-01T10:35:44.810Z,34.30
2019-05-01T10:44:02.413Z,30.80
2019-05-01T10:52:19.973Z,29.27
2019-05-01T11:00:39.142Z,29.13
2019-05-01T11:08:56.632Z,25.17
2019-05-01T11:17:14.270Z,24.47
2019-05-01T11:25:32.572Z,21.73
2019-05-01T11:34:18.412Z,24.67
2019-05-01T11:42:35.981Z,22.25
2019-05-01T11:50:53.422Z,23.53
2019-05-01T11:59:10.926Z,18.83
2019-05-01T12:07:28.426Z,19.77
2019-05-01T12:15:49.023Z,17.87
2019-05-01T12:24:06.543Z,17.30
2019-05-01T12:32:24.151Z,18.00
2019-05-01T12:40:42.732Z,18.57
2019-05-01T12:49:00.489Z,17.57
2019-05-01T12:57:18.306Z,14.20
2019-05-01T13:05:35.917Z,15.73
2019-05-01T13:13:53.401Z,14.60
2019-05-01T13:22:12.190Z,14.67
2019-05-01T13:30:46.081Z,15.13
2019-05-01T13:39:04.591Z,14.03
2019-05-01T13:47:22.096Z,14.00
2019-05-01T13:55:39.582Z,13.07
2019-05-01T14:03:57.029Z,12.63
2019-05-01T14:12:14.579Z,10.70
2019-05-01T14:20:49.876Z,9.73
2019-05-01T14:29:07.529Z,10.03
2019-05-01T14:37:29.669Z,10.20
2019-05-01T14:45:44.918Z,10.87
2019-05-01T14:54:02.415Z,8.00
2019-05-01T15:02:19.898Z,9.03
2019-05-01T15:10:37.720Z,7.77
2019-05-01T15:19:17.803Z,7.33
2019-05-01T15:27:35.267Z,7.43
2019-05-01T15:35:52.823Z,6.33
2019-05-01T15:44:17.892Z,6.17
2019-05-01T15:52:35.427Z,5.60
2019-05-01T16:00:52.964Z,5.20
2019-05-01T16:09:10.711Z,4.70
2019-05-01T16:17:28.571Z,4.33
2019-05-01T16:25:46.116Z,4.40
2019-05-01T16:34:04.052Z,4.43
2019-05-01T16:42:33.755Z,4.60
2019-05-01T16:50:51.257Z,4.50
2019-05-01T16:59:09.097Z,4.10
2019-05-01T17:07:31.398Z,4.33
2019-05-01T17:15:50.924Z,4.80
2019-05-01T17:24:08.613Z,4.93
2019-05-01T17:32:26.255Z,4.40
2019-05-01T17:40:47.390Z,3.80
2019-05-01T17:49:04.266Z,4.10
2019-05-01T17:57:22.527Z,3.90
2019-05-01T18:06:01.363Z,5.03
2019-05-01T18:14:17.837Z,5.43
2019-05-01T18:22:54.522Z,4.40
2019-05-01T18:31:17.484Z,5.10
2019-05-01T18:39:38.456Z,5.67
2019-05-01T18:47:55.910Z,7.42
2019-05-01T18:56:13.425Z,7.90
2019-05-01T19:04:31.708Z,9.15
2019-05-01T19:12:49.484Z,7.97
2019-05-01T19:21:07.883Z,7.83
2019-05-01T19:29:26.629Z,10.40
2019-05-01T19:37:44.549Z,8.87
2019-05-01T19:46:02.031Z,8.70
2019-05-01T19:54:40.210Z,8.17
2019-05-01T20:02:58.996Z,9.47
2019-05-01T20:11:17.279Z,8.25
2019-05-01T20:19:34.933Z,7.87
2019-05-01T20:27:53.212Z,7.60
2019-05-01T20:36:11.012Z,8.88
2019-05-01T20:44:28.501Z,9.60
2019-05-01T20:52:46.033Z,8.80
2019-05-01T21:01:03.933Z,10.10
2019-05-01T21:09:26.003Z,10.93
2019-05-01T21:17:44.161Z,10.10
2019-05-01T21:26:03.897Z,9.60
2019-05-01T21:34:21.478Z,12.80
2019-05-01T21:42:38.940Z,9.83
2019-05-01T21:50:58.033Z,9.70
2019-05-01T21:59:15.617Z,9.87
2019-05-01T22:07:33.093Z,9.97
2019-05-01T22:15:55.449Z,12.37
2019-05-01T22:24:30.894Z,11.30
2019-05-01T22:32:51.220Z,13.30
2019-05-01T22:41:11.448Z,13.00
2019-05-01T22:49:28.874Z,14.10
2019-05-01T22:57:46.442Z,14.93
2019-05-01T23:06:06.380Z,13.60
2019-05-01T23:14:24.483Z,13.57
2019-05-01T23:22:42.034Z,13.88
2019-05-01T23:30:59.512Z,15.17
2019-05-01T23:39:16.953Z,16.67
2019-05-01T23:47:34.431Z,17.20
2019-05-01T23:55:54.561Z,16.13
